Impacts TAF Board INFO
FOR SITUATIONAL AWARENESS. NOT TO BE USED FOR FLIGHT PLANNING PURPOSES.
IDs:

KJFK - New York/Kennedy Int, NY, US

Issued at 1933 UTC 24 Apr 2018
Updated at 2058 UTC 24 Apr 2018
Potential Impact None Slight Moderate High
Time2051Z 24/21Z 24/22Z 24/23Z 25/00Z 25/01Z 25/02Z 25/03Z 25/04Z 25/05Z 25/06Z 25/07Z 25/08Z 25/09Z>>
Type OBS PRVL PRVL PRVL PRVL PRVL PRVL PRVL PRVL PRVL PRVL PRVL PRVL PRVL
VIS 10 >6 >6 >6 >6 >6 >6 6 6 6 3 3 3 3
CIG 190 250 120 120 120 120 120 20 20 20 6 6 6 6
Cover OVC BKN BKN BKN BKN BKN BKN OVC OVC OVC OVC OVC OVC OVC
FltCat VFR VFR VFR VFR VFR VFR VFR MVFR MVFR MVFR IFR IFR IFR IFR
WX -- -- -- -- -- -- -- -RA -RA -RA -RA BR -RA BR -RA BR -RA BR
WDir 130 150 110 110 110 110 110 90 90 90 70 70 70 70
WSpd 14 14 10 10 10 10 10 10 10 10 10 10 10 10
WGst -- 20 -- -- -- -- -- -- -- -- -- -- -- --

Raw TAF
KJFK 241933Z 2420/2524 15014G20KT P6SM SCT050 SCT120 BKN250
  FM242200 11010KT P6SM SCT050 BKN120
  FM250300 09010KT 6SM -RA SCT006 OVC020
  FM250600 07010KT 3SM -RA BR OVC006
  TEMPO 2510/2514 1 1/2SM +RA BR OVC008
  FM251400 12011KT 2SM -RA BR OVC006
  FM251900 14008KT 1SM -RA BR OVC005


Raw METAR
KJFK 242051Z 13014KT 10SM SCT055 SCT160 BKN190 OVC250 14/07 A3027 RMK AO2 SLP249 T01440072 56029
KJFK 241951Z 13015KT 10SM FEW050 FEW140 BKN200 BKN250 14/07 A3029 RMK AO2 SLP256 T01440072
KJFK 241851Z 15018G24KT 10SM FEW050 FEW140 SCT200 BKN250 16/07 A3032 RMK AO2 SLP268 T01560072
KJFK 241751Z 14017G22KT 10SM SCT050 SCT140 BKN260 16/07 A3036 RMK AO2 SLP279 T01610067 10161 20089 58017

METAR Board
Radar Display
Forecast Discussion

FOR SITUATIONAL AWARENESS. NOT TO BE USED FOR FLIGHT PLANNING PURPOSES.